Fort Yukon Airport Fort Yukon US
ICAO: PFYU
IATA:
Category: Medium
Scheduled Services:

Elevation: 433 ft
TransAlt. 18000 ft.

Airport Communications:
AWOS 3:125.8
ANCHORAGE CNTR:135
CTAF:122.5
FAIRBANKS RDO:122.1
EIELSON RANGE CON:125.3
TWEB:114.4

PFYU Zoom In..

Runways:

(A) RW 04 length 5000 ft width 100 ft
---- / hdg 35

(B) RW 22 length 5000 ft width 100 ft
---- / hdg 215

Location; PFYU
Day. 05 / Time. 13.56 Zulu
* Altimeter: 29.93
* Temperature: 09° c. 48.2°f.
* Wind from: 000° Speed 00 kn.
Dewpoint: 02° c.
Visibility: 10 Statute Miles.
Clouds: Broken 7000 ft.
Clouds: Broken 8500 ft.
Clouds: Broken 11000 ft.

PFYU 051356Z AUTO 00000KT 10SM BKN070 BKN085 BKN110 09/02 A2993 RMK AO2 SLP143 T00890017


Wind - Calm.

 
 
jpsmedia worldairports.se 2020   terms of use